East Tawas, Michigan
Current Conditions -  °F | °C
As of 6:14 PM on Saturday 25 Oct 2014 (Local Time) from KOSC Reporting Station
Clear Clear  
Wind Chill: 57°   Ceiling: Unl
Heat Index: 57°   Visibility: 10mi
Dew Point: 33°   Wind: 15mph
Humidity: 41%   Direction: 290°WNW
Pressure: 29.68"   Gusts: 23mph
Location:  44.28°N, 83.49°W
Report Text: KOSC 252214Z AUTO 29013G20KT 10SM CLR 13/00 A2968 RMK AO2 T01390007
Loading
Personal Weather Stations






























Interactive Weather Map
Tropical Storm Tracking
New forecast layout! Learn more

10-Day Weather Forecast

Advertisements
Track Severe Weather on mobile